Time;durP1;ratioP1;P1;durP2;ratioP2;P2;SDS_P1;SDS_P2;PMS_P1;PMS_P2;Temp;Humidity;BMP_temperature;BMP_pressure;BME280_temperature;BME280_humidity;BME280_pressure;Samples;Min_cycle;Max_cycle;Signal;HPM_P1;HPM_P2
2021/09/26 11:50:37;;;;;;;28.45;21.52;;;;;;;;;;6246461;22;20024;-76
2021/09/26 11:53:04;;;;;;;23.70;20.02;;;;;;;;;;6220985;23;20016;-76
2021/09/26 11:55:35;;;;;;;22.35;19.92;;;;;;;;;;6247881;22;20020;-76
2021/09/26 11:58:03;;;;;;;24.08;20.25;;;;;;;;;;6247856;23;20004;-76
2021/09/26 12:00:31;;;;;;;21.65;19.25;;;;;;;;;;6247873;23;20053;-76
2021/09/26 12:03:11;;;;;;;23.17;19.15;;;;;;;;;;6247951;23;20031;-76
2021/09/26 12:05:38;;;;;;;22.80;20.38;;;;;;;;;;6247623;22;20000;-76
2021/09/26 12:08:05;;;;;;;25.30;21.40;;;;;;;;;;6247704;23;20142;-77
2021/09/26 12:10:32;;;;;;;21.55;19.25;;;;;;;;;;6247490;23;20015;-77
2021/09/26 12:12:57;;;;;;;26.50;19.77;;;;;;;;;;6247853;23;20004;-76
2021/09/26 12:15:26;;;;;;;21.98;19.23;;;;;;;;;;6247780;22;20387;-76
2021/09/26 12:17:57;;;;;;;23.02;20.27;;;;;;;;;;6247721;23;20000;-76
2021/09/26 12:20:24;;;;;;;27.85;21.77;;;;;;;;;;6247752;23;20034;-77
2021/09/26 12:22:56;;;;;;;21.38;18.95;;;;;;;;;;6247723;23;20004;-76
2021/09/26 12:25:39;;;;;;;22.95;19.63;;;;;;;;;;6248115;22;20007;-77
2021/09/26 12:28:19;;;;;;;21.70;18.92;;;;;;;;;;6247326;23;20008;-77
2021/09/26 12:30:51;;;;;;;20.08;16.98;;;;;;;;;;6247505;23;20058;-77
2021/09/26 12:33:30;;;;;;;23.98;20.15;;;;;;;;;;6247811;23;20431;-77
2021/09/26 12:35:58;;;;;;;24.45;19.08;;;;;;;;;;6247562;22;20000;-77
2021/09/26 12:38:39;;;;;;;24.88;19.75;;;;;;;;;;6247736;23;20104;-80
2021/09/26 12:41:09;;;;;;;22.35;18.52;;;;;;;;;;6247657;23;20079;-84
2021/09/26 12:43:45;;;;;;;25.38;20.98;;;;;;;;;;6247875;23;20007;-82
2021/09/26 12:46:13;;;;;;;23.83;20.63;;;;;;;;;;6247449;22;20004;-90
2021/09/26 12:48:39;;;;;;;27.35;22.65;;;;;;;;;;6220469;23;20008;-89
2021/09/26 12:51:13;;;;;;;27.50;22.83;;;;;;;;;;6247757;23;20012;-88
2021/09/26 12:53:42;;;;;;;25.38;22.30;;;;;;;;;;6247349;23;20075;-83
2021/09/26 12:56:09;;;;;;;27.98;23.73;;;;;;;;;;6247549;22;20004;-81
2021/09/26 12:58:45;;;;;;;26.92;23.00;;;;;;;;;;6247183;23;20004;-86
2021/09/26 13:01:13;;;;;;;25.33;21.85;;;;;;;;;;6247257;23;20003;-84
2021/09/26 13:03:49;;;;;;;25.77;21.98;;;;;;;;;;6246947;23;20376;-84
2021/09/26 13:06:24;;;;;;;28.52;23.10;;;;;;;;;;6219855;23;20012;-86
2021/09/26 13:14:11;;;;;;;21.70;19.35;;;;;;;;;;6235829;22;20020;-77
2021/09/26 13:16:43;;;;;;;20.35;17.42;;;;;;;;;;6246449;22;20004;-76
2021/09/26 13:19:41;;;;;;;18.75;16.75;;;;;;;;;;6246930;23;20426;-79
2021/09/26 13:22:15;;;;;;;23.05;16.75;;;;;;;;;;6246730;23;20004;-78
2021/09/26 13:25:12;;;;;;;22.25;19.90;;;;;;;;;;6247001;23;20000;-77
2021/09/26 13:27:40;;;;;;;21.50;18.25;;;;;;;;;;6225365;23;20042;-77
2021/09/26 13:30:28;;;;;;;23.02;19.58;;;;;;;;;;6246589;23;20001;-77
2021/09/26 13:33:03;;;;;;;25.23;19.98;;;;;;;;;;6246792;23;20004;-77
2021/09/26 13:35:32;;;;;;;23.58;20.92;;;;;;;;;;6246600;22;20000;-77
2021/09/26 13:38:27;;;;;;;26.17;22.50;;;;;;;;;;6246807;23;20004;-77
2021/09/26 13:41:41;;;;;;;28.40;22.05;;;;;;;;;;6246736;23;20000;-76
2021/09/26 13:44:22;;;;;;;23.95;20.83;;;;;;;;;;6222906;23;20008;-79
2021/09/26 13:46:49;;;;;;;24.08;19.98;;;;;;;;;;6246576;22;20403;-77
2021/09/26 13:49:16;;;;;;;24.13;20.20;;;;;;;;;;6246643;23;20004;-77
2021/09/26 13:51:44;;;;;;;22.73;20.20;;;;;;;;;;6246932;23;20007;-77
2021/09/26 13:54:10;;;;;;;27.35;24.45;;;;;;;;;;6246720;23;20014;-77
2021/09/26 13:56:36;;;;;;;23.65;21.10;;;;;;;;;;6246278;22;20067;-77
2021/09/26 13:59:02;;;;;;;21.48;19.23;;;;;;;;;;6246393;23;20431;-77
2021/09/26 14:01:28;;;;;;;22.38;19.83;;;;;;;;;;6246603;23;20010;-77
2021/09/26 14:03:54;;;;;;;22.35;20.00;;;;;;;;;;6246611;23;20032;-77
2021/09/26 14:06:19;;;;;;;24.63;19.23;;;;;;;;;;6246172;22;20008;-76
2021/09/26 14:08:45;;;;;;;22.80;19.67;;;;;;;;;;6246445;23;20403;-77
2021/09/26 14:11:12;;;;;;;21.95;19.67;;;;;;;;;;6246370;23;20008;-77
2021/09/26 14:13:37;;;;;;;19.35;17.35;;;;;;;;;;6246382;23;20016;-77
2021/09/26 14:16:05;;;;;;;22.42;20.05;;;;;;;;;;6246273;22;20374;-81
2021/09/26 14:18:31;;;;;;;20.92;18.80;;;;;;;;;;6246263;23;20296;-78
2021/09/26 14:21:01;;;;;;;19.48;17.48;;;;;;;;;;6246241;23;20000;-77
2021/09/26 14:23:28;;;;;;;20.63;18.00;;;;;;;;;;6245908;23;20008;-79
2021/09/26 14:25:53;;;;;;;21.58;18.67;;;;;;;;;;6246196;22;20028;-76
2021/09/26 14:28:19;;;;;;;18.73;16.83;;;;;;;;;;6246540;23;20000;-77
2021/09/26 14:30:45;;;;;;;18.83;16.30;;;;;;;;;;6246157;23;20004;-77
2021/09/26 14:33:11;;;;;;;18.98;16.85;;;;;;;;;;6246073;23;20067;-76
2021/09/26 14:35:37;;;;;;;16.73;15.07;;;;;;;;;;6246542;22;20023;-76
2021/09/26 14:38:05;;;;;;;19.63;16.17;;;;;;;;;;6246331;23;20004;-76
2021/09/26 14:40:31;;;;;;;18.75;16.05;;;;;;;;;;6246511;23;20350;-75
2021/09/26 14:42:57;;;;;;;17.13;15.32;;;;;;;;;;6246114;23;20004;-76
2021/09/26 14:45:27;;;;;;;19.40;17.50;;;;;;;;;;6246254;22;20079;-76
2021/09/26 14:47:53;;;;;;;18.38;16.48;;;;;;;;;;6219457;23;20000;-76
2021/09/26 14:50:19;;;;;;;19.23;17.20;;;;;;;;;;6246355;23;20004;-76
2021/09/26 14:52:45;;;;;;;22.00;18.55;;;;;;;;;;6246095;23;20039;-77
2021/09/26 14:55:16;;;;;;;22.58;19.92;;;;;;;;;;6246071;22;20340;-76
2021/09/26 14:57:42;;;;;;;20.33;18.30;;;;;;;;;;6246455;23;20006;-78
2021/09/26 15:00:10;;;;;;;21.88;19.67;;;;;;;;;;6246474;23;20001;-76
2021/09/26 15:02:35;;;;;;;23.45;19.13;;;;;;;;;;6246237;23;20011;-77
2021/09/26 15:05:00;;;;;;;20.90;18.70;;;;;;;;;;6245885;22;20379;-76
2021/09/26 15:07:26;;;;;;;21.80;19.52;;;;;;;;;;6246259;23;20004;-76
2021/09/26 15:09:52;;;;;;;23.20;20.70;;;;;;;;;;6246315;23;20061;-77
2021/09/26 15:12:18;;;;;;;26.50;19.33;;;;;;;;;;6246372;23;20012;-76
2021/09/26 15:14:43;;;;;;;21.20;19.10;;;;;;;;;;6246308;23;20012;-76
2021/09/26 15:17:09;;;;;;;23.08;19.45;;;;;;;;;;6245889;22;20004;-76
2021/09/26 15:19:34;;;;;;;25.50;20.60;;;;;;;;;;6247144;23;20404;-77
2021/09/26 15:22:00;;;;;;;22.33;19.83;;;;;;;;;;6248484;23;20491;-76
2021/09/26 15:24:25;;;;;;;23.40;19.83;;;;;;;;;;6248186;23;20020;-76
2021/09/26 15:26:51;;;;;;;24.05;19.90;;;;;;;;;;6248069;22;20083;-77
2021/09/26 15:29:16;;;;;;;23.63;19.83;;;;;;;;;;6248041;23;20000;-76
2021/09/26 15:31:42;;;;;;;24.25;20.30;;;;;;;;;;6248238;23;20438;-77
2021/09/26 15:34:07;;;;;;;24.65;20.88;;;;;;;;;;6248044;23;20004;-77
2021/09/26 15:36:33;;;;;;;21.73;18.67;;;;;;;;;;6247648;22;20008;-76
2021/09/26 15:38:59;;;;;;;26.08;20.75;;;;;;;;;;6247695;23;20075;-76
2021/09/26 15:41:26;;;;;;;23.77;20.00;;;;;;;;;;6247943;23;20000;-78
2021/09/26 15:43:52;;;;;;;25.67;20.52;;;;;;;;;;6250698;23;20004;-72
2021/09/26 15:46:19;;;;;;;22.33;19.17;;;;;;;;;;6248423;22;20006;-78
2021/09/26 15:48:44;;;;;;;26.45;22.95;;;;;;;;;;6247830;23;20000;-78
2021/09/26 15:51:12;;;;;;;27.90;22.08;;;;;;;;;;6247216;23;20058;-78
2021/09/26 15:53:38;;;;;;;26.98;21.77;;;;;;;;;;6247801;23;20000;-79
2021/09/26 15:56:04;;;;;;;24.33;21.38;;;;;;;;;;6247456;22;20011;-78
2021/09/26 15:58:29;;;;;;;26.77;21.48;;;;;;;;;;6248036;23;20130;-78
2021/09/26 16:00:56;;;;;;;25.70;22.10;;;;;;;;;;6247524;23;20000;-80
2021/09/26 16:03:22;;;;;;;25.65;21.30;;;;;;;;;;6247338;23;20411;-79
2021/09/26 16:05:49;;;;;;;23.63;20.25;;;;;;;;;;6247378;22;20028;-78
2021/09/26 16:08:15;;;;;;;28.42;20.70;;;;;;;;;;6247499;23;20000;-79
2021/09/26 16:10:44;;;;;;;22.67;20.13;;;;;;;;;;6247275;23;20004;-78
2021/09/26 16:13:09;;;;;;;21.15;18.95;;;;;;;;;;6247147;23;20016;-80
2021/09/26 16:15:37;;;;;;;19.30;17.27;;;;;;;;;;6247388;22;20007;-78
2021/09/26 16:18:04;;;;;;;21.90;17.45;;;;;;;;;;6220619;23;20035;-79
2021/09/26 16:20:35;;;;;;;20.10;17.65;;;;;;;;;;6247672;23;20008;-79
2021/09/26 16:23:02;;;;;;;19.88;16.30;;;;;;;;;;6247291;23;20424;-79
2021/09/26 16:25:32;;;;;;;16.58;13.80;;;;;;;;;;6247668;22;20001;-79
2021/09/26 16:28:01;;;;;;;22.05;18.40;;;;;;;;;;6247480;23;20004;-79
2021/09/26 16:30:27;;;;;;;22.17;18.95;;;;;;;;;;6246716;23;20455;-79
2021/09/26 16:32:53;;;;;;;22.55;19.15;;;;;;;;;;6247457;23;20064;-79
2021/09/26 16:35:20;;;;;;;23.38;18.17;;;;;;;;;;6247342;22;20035;-79
2021/09/26 16:37:46;;;;;;;18.30;15.32;;;;;;;;;;6247527;23;20007;-79
2021/09/26 16:40:14;;;;;;;20.55;15.75;;;;;;;;;;6248356;23;20012;-79
2021/09/26 16:42:39;;;;;;;18.60;15.63;;;;;;;;;;6247149;23;20008;-79
2021/09/26 16:45:07;;;;;;;19.80;16.75;;;;;;;;;;6247056;22;20004;-79
2021/09/26 16:47:34;;;;;;;19.70;16.02;;;;;;;;;;6247291;23;20450;-79
2021/09/26 16:49:59;;;;;;;15.52;13.02;;;;;;;;;;6247230;23;20005;-79
2021/09/26 16:52:25;;;;;;;13.80;12.25;;;;;;;;;;6247706;23;20494;-79
2021/09/26 16:54:50;;;;;;;14.75;12.90;;;;;;;;;;6247280;23;20004;-79
2021/09/26 16:57:17;;;;;;;19.38;17.27;;;;;;;;;;6220665;23;20016;-79
2021/09/26 16:59:42;;;;;;;19.30;16.55;;;;;;;;;;6247244;23;20322;-79
2021/09/26 17:02:08;;;;;;;24.05;20.15;;;;;;;;;;6247196;23;20047;-79
2021/09/26 17:04:33;;;;;;;22.88;19.50;;;;;;;;;;6247321;23;20004;-79
2021/09/26 17:06:59;;;;;;;21.35;19.05;;;;;;;;;;6246552;22;20032;-85
2021/09/26 17:09:26;;;;;;;19.80;17.25;;;;;;;;;;6247118;23;20004;-80
2021/09/26 17:11:53;;;;;;;21.85;16.98;;;;;;;;;;6248043;23;20004;-79
2021/09/26 17:14:19;;;;;;;19.85;17.38;;;;;;;;;;6219849;23;20091;-77
2021/09/26 17:16:45;;;;;;;20.80;18.30;;;;;;;;;;6246460;22;20000;-78
2021/09/26 17:19:11;;;;;;;21.70;19.33;;;;;;;;;;6246494;23;20078;-77
2021/09/26 17:21:36;;;;;;;21.75;19.27;;;;;;;;;;6246890;23;20411;-79
2021/09/26 17:24:02;;;;;;;24.60;19.55;;;;;;;;;;6246821;23;20000;-78
2021/09/26 17:26:28;;;;;;;21.33;19.02;;;;;;;;;;6246889;22;20011;-77
2021/09/26 17:28:53;;;;;;;24.17;19.40;;;;;;;;;;6246734;23;20000;-80
2021/09/26 17:31:19;;;;;;;22.63;19.60;;;;;;;;;;6246605;23;20446;-80
2021/09/26 17:33:46;;;;;;;23.67;19.90;;;;;;;;;;6247211;23;20007;-80
2021/09/26 17:36:13;;;;;;;26.45;22.75;;;;;;;;;;6246823;22;20023;-78
2021/09/26 17:38:40;;;;;;;27.08;22.20;;;;;;;;;;6247094;23;20319;-81
2021/09/26 17:41:06;;;;;;;26.50;23.30;;;;;;;;;;6246502;23;20000;-82
2021/09/26 17:43:33;;;;;;;26.52;22.02;;;;;;;;;;6246605;23;20034;-78
2021/09/26 17:46:02;;;;;;;27.58;23.50;;;;;;;;;;6246771;22;20035;-80
2021/09/26 17:48:28;;;;;;;26.60;22.48;;;;;;;;;;6246711;23;20006;-78
2021/09/26 17:50:56;;;;;;;28.65;23.38;;;;;;;;;;6246902;23;20384;-80
2021/09/26 17:53:22;;;;;;;24.95;21.45;;;;;;;;;;6246540;23;20047;-78
2021/09/26 17:55:48;;;;;;;25.33;22.13;;;;;;;;;;6246580;22;20016;-78
2021/09/26 17:58:14;;;;;;;33.38;28.88;;;;;;;;;;6246397;23;20432;-81
2021/09/26 18:00:41;;;;;;;33.92;28.98;;;;;;;;;;6246477;23;20331;-79
2021/09/26 18:03:08;;;;;;;24.05;20.35;;;;;;;;;;6246421;23;20032;-79
2021/09/26 18:05:34;;;;;;;26.70;22.10;;;;;;;;;;6246429;22;20084;-86
2021/09/26 18:08:00;;;;;;;24.92;20.02;;;;;;;;;;6246765;23;20015;-77
2021/09/26 18:10:31;;;;;;;25.35;20.08;;;;;;;;;;6246344;23;20008;-80
2021/09/26 18:12:57;;;;;;;20.90;18.25;;;;;;;;;;6246054;23;20016;-77
2021/09/26 18:15:25;;;;;;;19.50;17.45;;;;;;;;;;6246628;22;20027;-77
2021/09/26 18:17:51;;;;;;;20.98;17.85;;;;;;;;;;6246532;23;20004;-77
2021/09/26 18:20:20;;;;;;;23.20;19.10;;;;;;;;;;6246254;23;20010;-77
2021/09/26 18:22:46;;;;;;;21.77;18.20;;;;;;;;;;6246306;23;19996;-77
2021/09/26 18:25:14;;;;;;;20.02;16.83;;;;;;;;;;6246082;22;20008;-77
2021/09/26 18:27:39;;;;;;;20.48;15.48;;;;;;;;;;6245825;23;20403;-76
2021/09/26 18:30:08;;;;;;;21.48;17.15;;;;;;;;;;6246233;23;20087;-77
2021/09/26 18:32:35;;;;;;;22.67;17.58;;;;;;;;;;6219320;23;20018;-77
2021/09/26 18:35:01;;;;;;;21.77;18.95;;;;;;;;;;6246103;22;20057;-77
2021/09/26 18:37:26;;;;;;;20.88;18.65;;;;;;;;;;6246317;23;20004;-77
2021/09/26 18:39:52;;;;;;;24.95;19.98;;;;;;;;;;6246105;23;20000;-77
2021/09/26 18:42:18;;;;;;;23.30;19.73;;;;;;;;;;6246274;23;20004;-77
2021/09/26 18:44:45;;;;;;;21.77;19.10;;;;;;;;;;6245993;23;20010;-77
2021/09/26 18:47:10;;;;;;;21.33;19.13;;;;;;;;;;6245730;22;20005;-77
2021/09/26 18:49:36;;;;;;;25.50;19.75;;;;;;;;;;6246249;23;20005;-77
2021/09/26 18:52:03;;;;;;;25.63;20.70;;;;;;;;;;6245929;23;20058;-77
2021/09/26 18:54:28;;;;;;;23.67;20.92;;;;;;;;;;6248816;23;19996;-77
2021/09/26 18:56:54;;;;;;;24.92;20.80;;;;;;;;;;6249167;22;20000;-77
2021/09/26 18:59:21;;;;;;;22.20;19.25;;;;;;;;;;6249376;23;20335;-78
2021/09/26 19:01:47;;;;;;;22.17;19.52;;;;;;;;;;6249574;23;20415;-77
2021/09/26 19:04:13;;;;;;;22.33;18.02;;;;;;;;;;6249474;23;20075;-77
2021/09/26 19:06:38;;;;;;;20.45;17.50;;;;;;;;;;6249075;22;20058;-77
2021/09/26 19:09:06;;;;;;;19.20;15.02;;;;;;;;;;6249210;23;20004;-77
2021/09/26 19:11:32;;;;;;;16.10;14.40;;;;;;;;;;6249380;23;20087;-77
2021/09/26 19:13:58;;;;;;;15.55;13.00;;;;;;;;;;6249343;23;20130;-77
2021/09/26 19:16:26;;;;;;;12.95;11.68;;;;;;;;;;6249464;22;20057;-77
2021/09/26 19:18:52;;;;;;;12.00;10.23;;;;;;;;;;6249668;23;20003;-77
2021/09/26 19:21:19;;;;;;;11.38;9.60;;;;;;;;;;6249300;23;20031;-77
2021/09/26 21:26:47;;;;;;;5.20;4.13;;;;;;;;;;6208410;22;20063;-76
2021/09/26 21:29:13;;;;;;;6.40;4.45;;;;;;;;;;6216043;23;20028;-79
